sensor_id;sensor_type;location;lat;lon;timestamp;pressure;altitude;pressure_sealevel;temperature;humidity
70781;BME280;72716;48.814;2.126;2024-02-23T11:17:26;97993.50;;;6.44;100.00
70781;BME280;72716;48.814;2.126;2024-02-23T11:19:54;97987.69;;;6.32;100.00
70781;BME280;72716;48.814;2.126;2024-02-23T11:22:26;97999.28;;;6.55;100.00
70781;BME280;72716;48.814;2.126;2024-02-23T11:24:53;97994.59;;;6.34;100.00
70781;BME280;72716;48.814;2.126;2024-02-23T11:27:18;97986.38;;;6.14;100.00
70781;BME280;72716;48.814;2.126;2024-02-23T11:29:47;97984.47;;;6.21;100.00
70781;BME280;72716;48.814;2.126;2024-02-23T11:32:17;97987.97;;;6.20;100.00
70781;BME280;72716;48.814;2.126;2024-02-23T11:34:54;97980.31;;;6.14;100.00
70781;BME280;72716;48.814;2.126;2024-02-23T11:37:20;97989.59;;;6.24;100.00
70781;BME280;72716;48.814;2.126;2024-02-23T11:39:46;97981.78;;;6.26;100.00
70781;BME280;72716;48.814;2.126;2024-02-23T11:42:12;97992.59;;;6.45;100.00
70781;BME280;72716;48.814;2.126;2024-02-23T11:44:37;97999.56;;;6.79;100.00
70781;BME280;72716;48.814;2.126;2024-02-23T11:47:03;97986.22;;;6.59;100.00
70781;BME280;72716;48.814;2.126;2024-02-23T11:49:29;97987.31;;;6.48;100.00
70781;BME280;72716;48.814;2.126;2024-02-23T11:51:55;97984.44;;;6.61;100.00
70781;BME280;72716;48.814;2.126;2024-02-23T11:54:21;97981.72;;;7.34;100.00
70781;BME280;72716;48.814;2.126;2024-02-23T11:56:47;97982.81;;;7.25;100.00
70781;BME280;72716;48.814;2.126;2024-02-23T11:59:15;97972.13;;;7.02;100.00
70781;BME280;72716;48.814;2.126;2024-02-23T12:01:40;97965.41;;;6.94;100.00
70781;BME280;72716;48.814;2.126;2024-02-23T12:04:06;97965.84;;;6.76;100.00
70781;BME280;72716;48.814;2.126;2024-02-23T12:06:33;97966.00;;;6.70;100.00
70781;BME280;72716;48.814;2.126;2024-02-23T12:08:59;97972.97;;;6.70;100.00
70781;BME280;72716;48.814;2.126;2024-02-23T12:11:25;97971.19;;;6.70;100.00
70781;BME280;72716;48.814;2.126;2024-02-23T12:13:50;97957.78;;;6.52;100.00
70781;BME280;72716;48.814;2.126;2024-02-23T12:16:16;97949.09;;;6.53;100.00
70781;BME280;72716;48.814;2.126;2024-02-23T12:18:41;97958.53;;;6.58;100.00
70781;BME280;72716;48.814;2.126;2024-02-23T12:21:08;97954.66;;;6.74;100.00
70781;BME280;72716;48.814;2.126;2024-02-23T12:26:05;97965.28;;;6.65;100.00
70781;BME280;72716;48.814;2.126;2024-02-23T12:48:55;97929.56;;;6.38;100.00
70781;BME280;72716;48.814;2.126;2024-02-23T12:51:25;97930.84;;;6.90;100.00
70781;BME280;72716;48.814;2.126;2024-02-23T12:53:51;97921.06;;;7.00;100.00
70781;BME280;72716;48.814;2.126;2024-02-23T12:56:16;97927.28;;;6.94;100.00
70781;BME280;72716;48.814;2.126;2024-02-23T12:58:44;97927.28;;;6.94;100.00
70781;BME280;72716;48.814;2.126;2024-02-23T13:01:10;97928.47;;;7.14;100.00
70781;BME280;72716;48.814;2.126;2024-02-23T13:03:37;97916.09;;;7.22;100.00
70781;BME280;72716;48.814;2.126;2024-02-23T13:06:04;97906.13;;;7.07;100.00
70781;BME280;72716;48.814;2.126;2024-02-23T13:08:30;97903.56;;;7.37;100.00
70781;BME280;72716;48.814;2.126;2024-02-23T13:10:56;97894.72;;;7.73;100.00
70781;BME280;72716;48.814;2.126;2024-02-23T13:13:21;97893.84;;;7.72;100.00
70781;BME280;72716;48.814;2.126;2024-02-23T13:15:48;97889.88;;;7.60;100.00
70781;BME280;72716;48.814;2.126;2024-02-23T13:18:13;97884.16;;;7.49;100.00
70781;BME280;72716;48.814;2.126;2024-02-23T13:20:39;97886.97;;;7.41;100.00
70781;BME280;72716;48.814;2.126;2024-02-23T13:23:07;97885.06;;;7.46;100.00
70781;BME280;72716;48.814;2.126;2024-02-23T13:25:34;97885.50;;;7.00;100.00
70781;BME280;72716;48.814;2.126;2024-02-23T13:27:59;97872.38;;;7.05;100.00
70781;BME280;72716;48.814;2.126;2024-02-23T13:30:25;97869.72;;;7.07;100.00
70781;BME280;72716;48.814;2.126;2024-02-23T13:32:50;97874.22;;;7.01;100.00
70781;BME280;72716;48.814;2.126;2024-02-23T13:35:16;97872.06;;;6.84;100.00
70781;BME280;72716;48.814;2.126;2024-02-23T13:37:42;97869.63;;;6.11;100.00
70781;BME280;72716;48.814;2.126;2024-02-23T13:40:08;97854.31;;;5.99;100.00
70781;BME280;72716;48.814;2.126;2024-02-23T13:42:35;97856.16;;;5.93;100.00
70781;BME280;72716;48.814;2.126;2024-02-23T13:45:00;97847.41;;;5.98;100.00
70781;BME280;72716;48.814;2.126;2024-02-23T13:47:26;97851.09;;;6.25;100.00
70781;BME280;72716;48.814;2.126;2024-02-23T13:49:51;97849.94;;;6.37;100.00
70781;BME280;72716;48.814;2.126;2024-02-23T13:52:16;97843.47;;;6.52;100.00
70781;BME280;72716;48.814;2.126;2024-02-23T13:54:41;97844.03;;;6.64;100.00
70781;BME280;72716;48.814;2.126;2024-02-23T13:57:08;97847.19;;;6.75;100.00
70781;BME280;72716;48.814;2.126;2024-02-23T13:59:33;97864.31;;;6.83;100.00
70781;BME280;72716;48.814;2.126;2024-02-23T14:01:59;97857.25;;;6.56;100.00
70781;BME280;72716;48.814;2.126;2024-02-23T14:04:25;97861.84;;;6.44;100.00
70781;BME280;72716;48.814;2.126;2024-02-23T14:06:51;97852.22;;;6.13;100.00
70781;BME280;72716;48.814;2.126;2024-02-23T14:09:16;97851.91;;;5.91;100.00
70781;BME280;72716;48.814;2.126;2024-02-23T14:11:41;97842.94;;;6.04;100.00
70781;BME280;72716;48.814;2.126;2024-02-23T14:14:07;97839.50;;;6.02;100.00
70781;BME280;72716;48.814;2.126;2024-02-23T14:16:33;97839.34;;;6.10;100.00
70781;BME280;72716;48.814;2.126;2024-02-23T14:18:58;97837.25;;;6.25;100.00
70781;BME280;72716;48.814;2.126;2024-02-23T14:21:24;97827.31;;;6.41;100.00
70781;BME280;72716;48.814;2.126;2024-02-23T14:23:50;97826.34;;;6.45;100.00
70781;BME280;72716;48.814;2.126;2024-02-23T14:26:16;97836.81;;;6.42;100.00
70781;BME280;72716;48.814;2.126;2024-02-23T14:28:41;97830.81;;;6.40;100.00
70781;BME280;72716;48.814;2.126;2024-02-23T14:31:07;97830.84;;;6.38;100.00
70781;BME280;72716;48.814;2.126;2024-02-23T14:33:32;97854.19;;;6.40;100.00
70781;BME280;72716;48.814;2.126;2024-02-23T14:35:57;97829.91;;;6.41;100.00
70781;BME280;72716;48.814;2.126;2024-02-23T14:54:16;97853.09;;;4.95;100.00
70781;BME280;72716;48.814;2.126;2024-02-23T14:56:42;97844.84;;;5.18;100.00
70781;BME280;72716;48.814;2.126;2024-02-23T14:59:07;97845.66;;;5.20;100.00
70781;BME280;72716;48.814;2.126;2024-02-23T15:01:38;97843.97;;;5.19;100.00
70781;BME280;72716;48.814;2.126;2024-02-23T15:04:04;97837.97;;;5.16;100.00
70781;BME280;72716;48.814;2.126;2024-02-23T15:06:29;97827.53;;;5.19;100.00
70781;BME280;72716;48.814;2.126;2024-02-23T15:08:55;97836.00;;;5.27;100.00
70781;BME280;72716;48.814;2.126;2024-02-23T15:11:20;97836.75;;;5.32;100.00
70781;BME280;72716;48.814;2.126;2024-02-23T15:13:46;97828.94;;;5.36;100.00
70781;BME280;72716;48.814;2.126;2024-02-23T15:16:12;97821.91;;;5.39;100.00
70781;BME280;72716;48.814;2.126;2024-02-23T15:18:37;97824.34;;;5.47;100.00
70781;BME280;72716;48.814;2.126;2024-02-23T15:21:03;97813.97;;;5.47;100.00
70781;BME280;72716;48.814;2.126;2024-02-23T15:23:28;97812.22;;;5.49;100.00
70781;BME280;72716;48.814;2.126;2024-02-23T15:25:54;97809.53;;;5.52;100.00
70781;BME280;72716;48.814;2.126;2024-02-23T15:28:19;97817.34;;;5.51;100.00
70781;BME280;72716;48.814;2.126;2024-02-23T15:30:49;97808.63;;;5.53;100.00
70781;BME280;72716;48.814;2.126;2024-02-23T15:33:14;97807.78;;;5.54;100.00
70781;BME280;72716;48.814;2.126;2024-02-23T15:35:40;97805.94;;;5.59;100.00
70781;BME280;72716;48.814;2.126;2024-02-23T15:38:05;97808.41;;;5.64;100.00
70781;BME280;72716;48.814;2.126;2024-02-23T15:40:31;97809.19;;;5.68;100.00
70781;BME280;72716;48.814;2.126;2024-02-23T15:42:56;97818.59;;;5.72;100.00
70781;BME280;72716;48.814;2.126;2024-02-23T15:45:22;97814.00;;;5.83;100.00
70781;BME280;72716;48.814;2.126;2024-02-23T15:47:48;97815.53;;;5.92;100.00
70781;BME280;72716;48.814;2.126;2024-02-23T15:50:13;97812.66;;;6.03;100.00
70781;BME280;72716;48.814;2.126;2024-02-23T15:52:39;97814.19;;;6.12;100.00
70781;BME280;72716;48.814;2.126;2024-02-23T15:55:05;97807.84;;;6.24;100.00
70781;BME280;72716;48.814;2.126;2024-02-23T15:57:30;97814.66;;;6.28;100.00
70781;BME280;72716;48.814;2.126;2024-02-23T15:59:56;97813.06;;;6.23;100.00
70781;BME280;72716;48.814;2.126;2024-02-23T16:02:22;97818.38;;;6.18;100.00
70781;BME280;72716;48.814;2.126;2024-02-23T16:04:47;97811.47;;;6.17;100.00
70781;BME280;72716;48.814;2.126;2024-02-23T16:07:12;97813.19;;;6.18;100.00
70781;BME280;72716;48.814;2.126;2024-02-23T16:09:38;97814.03;;;6.18;100.00
70781;BME280;72716;48.814;2.126;2024-02-23T16:12:04;97818.38;;;6.18;100.00
70781;BME280;72716;48.814;2.126;2024-02-23T16:14:29;97813.28;;;6.15;100.00
70781;BME280;72716;48.814;2.126;2024-02-23T16:16:55;97820.16;;;6.16;100.00
70781;BME280;72716;48.814;2.126;2024-02-23T16:19:20;97821.91;;;6.15;100.00
70781;BME280;72716;48.814;2.126;2024-02-23T16:21:46;97823.59;;;6.18;100.00
70781;BME280;72716;48.814;2.126;2024-02-23T16:24:14;97813.03;;;6.24;100.00
70781;BME280;72716;48.814;2.126;2024-02-23T16:26:39;97812.94;;;6.27;100.00
70781;BME280;72716;48.814;2.126;2024-02-23T16:29:05;97807.59;;;6.34;100.00
70781;BME280;72716;48.814;2.126;2024-02-23T16:31:35;97823.25;;;6.32;100.00
70781;BME280;72716;48.814;2.126;2024-02-23T16:34:01;97818.47;;;6.15;100.00
70781;BME280;72716;48.814;2.126;2024-02-23T16:36:26;97810.47;;;5.86;100.00
70781;BME280;72716;48.814;2.126;2024-02-23T16:38:51;97815.13;;;5.73;100.00
70781;BME280;72716;48.814;2.126;2024-02-23T16:41:17;97810.97;;;5.66;100.00
